createdAt,value
2023-03-05T07:06:38.780Z,1.76
2023-03-05T07:07:42.638Z,1.71
2023-03-05T07:08:46.662Z,1.76
2023-03-05T07:09:50.465Z,1.79
2023-03-05T07:10:53.291Z,1.76
2023-03-05T07:11:56.518Z,1.80
2023-03-05T07:13:00.203Z,1.85
2023-03-05T07:14:04.149Z,1.82
2023-03-05T07:15:07.561Z,1.92
2023-03-05T07:16:14.516Z,1.89
2023-03-05T07:17:18.038Z,1.85
2023-03-05T07:18:21.786Z,1.96
2023-03-05T07:19:24.597Z,1.98
2023-03-05T07:20:27.542Z,2.01
2023-03-05T07:21:33.082Z,2.01
2023-03-05T07:22:37.961Z,2.06
2023-03-05T07:23:41.379Z,2.10
2023-03-05T07:24:44.261Z,2.12
2023-03-05T07:25:47.089Z,2.12
2023-03-05T07:26:50.193Z,2.16
2023-03-05T07:27:53.080Z,2.21
2023-03-05T07:28:56.229Z,2.23
2023-03-05T07:29:59.851Z,2.23
2023-03-05T07:31:12.178Z,2.26
2023-03-05T07:32:19.528Z,2.30
2023-03-05T07:33:22.919Z,2.33
2023-03-05T07:34:27.205Z,2.34
2023-03-05T07:35:30.228Z,2.37
2023-03-05T07:36:35.317Z,2.41
2023-03-05T07:37:38.544Z,2.43
2023-03-05T07:38:41.696Z,2.45
2023-03-05T07:39:47.226Z,2.49
2023-03-05T07:40:51.063Z,2.51
2023-03-05T07:41:53.818Z,2.53
2023-03-05T07:43:01.930Z,2.54
2023-03-05T07:44:05.204Z,2.54
2023-03-05T07:45:09.037Z,2.57
2023-03-05T07:46:14.068Z,2.55
2023-03-05T07:47:17.241Z,2.57
2023-03-05T07:48:25.305Z,2.59
2023-03-05T07:49:28.070Z,2.61
2023-03-05T07:50:33.107Z,2.64
2023-03-05T07:51:36.184Z,2.64
2023-03-05T07:52:40.217Z,2.66
2023-03-05T07:53:44.245Z,2.69
2023-03-05T07:54:47.192Z,2.69
2023-03-05T07:55:50.327Z,2.61
2023-03-05T07:56:54.719Z,2.73
2023-03-05T07:57:58.311Z,2.77
2023-03-05T07:59:11.114Z,2.78
2023-03-05T08:00:14.368Z,2.81
2023-03-05T08:01:18.767Z,2.78
2023-03-05T08:02:21.804Z,2.83
2023-03-05T08:03:24.841Z,2.87
2023-03-05T08:04:27.830Z,2.82
2023-03-05T08:05:30.831Z,2.89
2023-03-05T08:06:34.175Z,2.87
2023-03-05T08:07:36.963Z,2.90
2023-03-05T08:08:40.051Z,2.94
2023-03-05T08:09:44.137Z,2.96
2023-03-05T08:11:01.020Z,2.92
2023-03-05T08:12:05.439Z,2.97
2023-03-05T08:13:08.476Z,2.96
2023-03-05T08:14:12.628Z,3.05
2023-03-05T08:15:15.475Z,3.02
2023-03-05T08:16:20.522Z,3.02
2023-03-05T08:17:23.771Z,3.06
2023-03-05T08:18:26.597Z,3.10
2023-03-05T08:19:29.715Z,3.17
2023-03-05T08:20:40.072Z,3.19
2023-03-05T08:21:42.897Z,3.08
2023-03-05T08:22:46.991Z,3.13
2023-03-05T08:23:49.985Z,3.18
2023-03-05T08:24:52.786Z,3.22
2023-03-05T08:25:55.918Z,3.19
2023-03-05T08:26:59.211Z,3.20
2023-03-05T08:28:04.188Z,3.19
2023-03-05T08:29:09.279Z,3.27
2023-03-05T08:30:16.835Z,3.30
2023-03-05T08:31:22.329Z,3.30
2023-03-05T08:32:25.333Z,3.33
2023-03-05T08:33:31.158Z,3.35
2023-03-05T08:34:34.601Z,3.39
2023-03-05T08:35:38.558Z,3.40
2023-03-05T08:36:41.803Z,3.45
2023-03-05T08:37:44.745Z,3.47
2023-03-05T08:38:48.691Z,3.48
2023-03-05T08:39:52.377Z,3.55
2023-03-05T08:40:55.613Z,3.49
2023-03-05T08:41:58.980Z,3.46
2023-03-05T08:43:01.987Z,3.44
2023-03-05T08:44:05.166Z,3.50
2023-03-05T08:45:09.404Z,3.55
2023-03-05T08:46:14.154Z,3.26
2023-03-05T08:47:18.760Z,3.67
2023-03-05T08:48:24.514Z,3.64
2023-03-05T08:49:27.957Z,3.70
2023-03-05T08:50:31.738Z,3.68
2023-03-05T08:51:36.760Z,3.61
2023-03-05T08:52:40.470Z,3.53
2023-03-05T08:53:45.928Z,3.54
2023-03-05T08:54:49.660Z,3.50
2023-03-05T08:56:00.324Z,3.40
2023-03-05T08:57:03.876Z,3.45
2023-03-05T08:58:06.931Z,3.37
2023-03-05T08:59:12.587Z,3.38
2023-03-05T09:00:17.451Z,3.17
2023-03-05T09:01:20.570Z,3.03
2023-03-05T09:02:23.604Z,3.05
2023-03-05T09:03:27.041Z,3.16
2023-03-05T09:04:29.887Z,3.26
2023-03-05T09:05:33.120Z,3.07
2023-03-05T09:06:39.579Z,3.07
2023-03-05T09:07:42.742Z,3.12
2023-03-05T09:08:46.418Z,3.12
2023-03-05T09:09:49.277Z,3.15
2023-03-05T09:10:52.943Z,3.17
2023-03-05T09:11:59.691Z,3.22
2023-03-05T09:13:04.326Z,3.25
2023-03-05T09:14:08.568Z,3.02
2023-03-05T09:15:12.118Z,3.06
2023-03-05T09:16:17.888Z,3.10
2023-03-05T09:17:20.923Z,3.05
2023-03-05T09:18:25.344Z,3.11
2023-03-05T09:19:28.141Z,3.13
2023-03-05T09:20:31.585Z,3.01
2023-03-05T09:21:35.242Z,3.08
2023-03-05T09:22:38.527Z,3.16
2023-03-05T09:23:42.411Z,3.13
2023-03-05T09:24:45.255Z,3.35
2023-03-05T09:25:48.053Z,3.39
2023-03-05T09:26:51.417Z,3.42
2023-03-05T09:27:54.631Z,3.47
2023-03-05T09:28:57.659Z,3.55
2023-03-05T09:30:00.871Z,3.65
2023-03-05T09:31:08.206Z,3.73
2023-03-05T09:32:11.696Z,3.78
2023-03-05T09:33:14.784Z,3.74
2023-03-05T09:34:17.649Z,3.56
2023-03-05T09:35:20.713Z,3.58
2023-03-05T09:36:27.319Z,3.58
2023-03-05T09:37:30.527Z,3.74
2023-03-05T09:38:33.369Z,3.80
2023-03-05T09:39:37.046Z,3.81
2023-03-05T09:41:18.895Z,3.63
2023-03-05T09:42:50.461Z,3.54
2023-03-05T09:43:53.875Z,3.50
2023-03-05T09:45:17.223Z,3.48
2023-03-05T09:46:34.281Z,3.66
2023-03-05T09:48:16.662Z,3.75
2023-03-05T09:49:47.305Z,3.48
2023-03-05T09:51:01.500Z,3.28
2023-03-05T09:52:23.475Z,3.46
2023-03-05T09:54:18.601Z,3.53
2023-03-05T09:55:40.941Z,3.73
2023-03-05T09:57:03.561Z,3.84
2023-03-05T09:58:13.335Z,3.89
2023-03-05T09:59:44.848Z,3.99
2023-03-05T10:00:50.427Z,3.96
2023-03-05T10:01:56.257Z,4.09
2023-03-05T10:03:05.350Z,4.08
2023-03-05T10:04:14.307Z,4.00
2023-03-05T10:05:32.271Z,4.08
2023-03-05T10:06:47.283Z,4.15
2023-03-05T10:08:03.644Z,4.19
2023-03-05T10:09:40.582Z,3.99
2023-03-05T10:10:51.212Z,3.92
2023-03-05T10:12:06.150Z,3.87
2023-03-05T10:13:22.205Z,3.93
2023-03-05T10:14:34.216Z,3.96
2023-03-05T10:15:52.192Z,3.93
2023-03-05T10:17:10.560Z,4.01
2023-03-05T10:18:19.864Z,3.66
2023-03-05T10:19:51.089Z,3.69
2023-03-05T10:21:04.334Z,3.89
2023-03-05T10:22:21.308Z,4.00
2023-03-05T10:24:09.562Z,4.22
2023-03-05T10:25:36.973Z,4.17
2023-03-05T10:27:05.580Z,3.76
2023-03-05T10:28:26.439Z,3.64
2023-03-05T10:30:00.934Z,3.84
2023-03-05T10:31:06.696Z,4.00
2023-03-05T10:32:39.024Z,3.89
2023-03-05T10:34:03.460Z,4.11
2023-03-05T10:35:13.430Z,4.29
2023-03-05T10:36:50.243Z,3.86
2023-03-05T10:38:02.568Z,3.86
2023-03-05T10:39:26.604Z,3.72
2023-03-05T10:40:41.300Z,3.82
2023-03-05T10:42:07.819Z,4.15
2023-03-05T10:43:29.038Z,4.32
2023-03-05T10:44:50.110Z,4.46
2023-03-05T10:45:55.560Z,4.40
2023-03-05T10:47:02.104Z,4.46
2023-03-05T10:48:13.303Z,4.44
2023-03-05T10:49:25.686Z,4.66
2023-03-05T10:50:35.842Z,4.33
2023-03-05T10:51:48.317Z,3.89
2023-03-05T10:53:18.206Z,4.11
2023-03-05T10:54:29.882Z,4.25
2023-03-05T10:55:33.047Z,4.09
2023-03-05T10:56:36.288Z,4.20
2023-03-05T10:57:39.516Z,3.88
2023-03-05T10:58:42.630Z,3.81
2023-03-05T11:00:18.281Z,4.04
2023-03-05T11:01:28.323Z,3.85
2023-03-05T11:02:32.069Z,3.88
2023-03-05T11:03:59.056Z,4.09
2023-03-05T11:05:03.611Z,4.22
2023-03-05T11:06:12.520Z,4.25
2023-03-05T11:07:16.232Z,4.49
2023-03-05T11:08:35.432Z,4.00
2023-03-05T11:09:38.777Z,3.91
2023-03-05T11:10:42.085Z,3.81
2023-03-05T11:12:02.232Z,3.94
2023-03-05T11:13:25.363Z,3.70
2023-03-05T11:14:33.693Z,3.91
2023-03-05T11:15:37.144Z,3.97
2023-03-05T11:16:49.464Z,4.04
2023-03-05T11:18:21.242Z,4.23
2023-03-05T11:19:33.452Z,4.00
2023-03-05T11:20:37.456Z,4.15
2023-03-05T11:21:41.798Z,3.99
2023-03-05T11:23:15.818Z,4.02
2023-03-05T11:24:19.884Z,4.35
2023-03-05T11:25:25.656Z,4.59
2023-03-05T11:26:29.286Z,4.43
2023-03-05T11:27:41.422Z,4.41
2023-03-05T11:28:53.902Z,4.41
2023-03-05T11:29:57.396Z,4.45
2023-03-05T11:31:14.071Z,4.44
2023-03-05T11:32:22.505Z,4.56
2023-03-05T11:33:26.216Z,4.66
2023-03-05T11:34:35.551Z,4.72
2023-03-05T11:35:42.227Z,4.75
2023-03-05T11:36:55.079Z,4.60
2023-03-05T11:38:04.226Z,4.48
2023-03-05T11:39:08.425Z,4.42
2023-03-05T11:40:24.125Z,4.75
2023-03-05T11:41:48.113Z,4.91
2023-03-05T11:43:02.827Z,4.81
2023-03-05T11:44:29.556Z,4.78
2023-03-05T11:45:37.755Z,4.74
2023-03-05T11:46:48.747Z,4.97
2023-03-05T11:48:18.378Z,4.70
2023-03-05T11:49:28.259Z,4.80
2023-03-05T11:50:34.041Z,4.78
2023-03-05T11:51:46.478Z,4.73
2023-03-05T11:53:10.063Z,4.54
2023-03-05T11:54:21.378Z,4.59
2023-03-05T11:55:56.480Z,4.40
2023-03-05T11:57:02.942Z,4.45
2023-03-05T11:58:37.005Z,4.65
2023-03-05T11:59:40.763Z,4.72
2023-03-05T12:00:47.288Z,4.67
2023-03-05T12:01:55.035Z,4.45
2023-03-05T12:03:02.667Z,4.54
2023-03-05T12:04:10.407Z,4.53
2023-03-05T12:05:17.422Z,4.46
2023-03-05T12:06:41.073Z,4.73
2023-03-05T12:07:50.719Z,4.88
2023-03-05T12:09:00.300Z,4.85
2023-03-05T12:10:04.801Z,4.95
2023-03-05T12:11:27.868Z,5.10
2023-03-05T12:12:40.054Z,5.04
2023-03-05T12:13:49.502Z,5.06
2023-03-05T12:15:01.385Z,4.76
2023-03-05T12:16:04.557Z,4.94
2023-03-05T12:17:19.072Z,4.85
2023-03-05T12:18:29.689Z,4.92
2023-03-05T12:19:51.659Z,4.88
2023-03-05T12:21:08.219Z,5.21
2023-03-05T12:22:21.656Z,5.25
2023-03-05T12:23:28.579Z,5.08
2023-03-05T12:24:35.568Z,5.04
2023-03-05T12:25:42.235Z,5.04
2023-03-05T12:27:09.893Z,4.79
2023-03-05T12:28:31.634Z,4.99
2023-03-05T12:29:45.930Z,5.10
2023-03-05T12:30:50.135Z,4.99
2023-03-05T12:31:53.410Z,4.82
2023-03-05T12:33:00.432Z,4.89
2023-03-05T12:34:36.347Z,4.98
2023-03-05T12:35:41.192Z,5.01
2023-03-05T12:36:44.890Z,5.26
2023-03-05T12:37:48.473Z,5.20
2023-03-05T12:38:55.036Z,5.21
2023-03-05T12:40:01.012Z,5.09
2023-03-05T12:41:31.589Z,5.01
2023-03-05T12:42:42.285Z,5.14
2023-03-05T12:43:46.417Z,5.06
2023-03-05T12:45:09.593Z,5.28
2023-03-05T12:46:30.032Z,5.27
2023-03-05T12:47:33.901Z,5.14
2023-03-05T12:48:44.650Z,5.03
2023-03-05T12:49:50.561Z,5.06
2023-03-05T12:50:59.535Z,5.10
2023-03-05T12:52:04.332Z,5.28
2023-03-05T12:53:07.619Z,5.29
2023-03-05T12:54:32.166Z,5.35
2023-03-05T12:55:46.914Z,5.40
2023-03-05T12:56:53.718Z,5.42
2023-03-05T12:58:18.825Z,5.19
2023-03-05T12:59:29.538Z,5.33
2023-03-05T13:00:45.296Z,5.51
2023-03-05T13:01:57.836Z,5.57
2023-03-05T13:03:09.016Z,5.63
2023-03-05T13:04:24.257Z,5.55
2023-03-05T13:05:33.130Z,5.58
2023-03-05T13:06:39.733Z,5.58
2023-03-05T13:07:44.156Z,5.43
2023-03-05T13:08:57.132Z,5.45
2023-03-05T13:10:01.578Z,5.35
2023-03-05T13:11:22.572Z,5.39
2023-03-05T13:12:29.011Z,5.45
2023-03-05T13:13:44.379Z,5.38
2023-03-05T13:14:57.937Z,4.92
2023-03-05T13:16:01.751Z,5.30
2023-03-05T13:17:29.418Z,5.26
2023-03-05T13:18:36.808Z,5.28
2023-03-05T13:19:42.450Z,5.36
2023-03-05T13:20:46.501Z,5.59
2023-03-05T13:22:04.955Z,5.71
2023-03-05T13:23:29.221Z,5.60
2023-03-05T13:24:33.529Z,5.36
2023-03-05T13:25:36.981Z,5.34
2023-03-05T13:26:41.947Z,5.32
2023-03-05T13:27:47.602Z,5.48
2023-03-05T13:29:10.215Z,5.53
2023-03-05T13:30:28.958Z,5.34
2023-03-05T13:31:37.201Z,5.31
2023-03-05T13:32:41.438Z,5.43
2023-03-05T13:33:59.067Z,5.68
2023-03-05T13:35:03.120Z,5.80
2023-03-05T13:36:08.180Z,5.85
2023-03-05T13:37:21.391Z,5.75
2023-03-05T13:38:34.075Z,5.63
2023-03-05T13:39:44.517Z,5.67
2023-03-05T13:41:04.634Z,5.64
2023-03-05T13:42:18.941Z,5.69
2023-03-05T13:43:23.204Z,5.71
2023-03-05T13:46:31.985Z,5.45
2023-03-05T13:47:39.678Z,5.45
2023-03-05T13:48:43.644Z,5.45
2023-03-05T13:49:48.153Z,5.80
2023-03-05T13:50:58.106Z,5.65
2023-03-05T13:52:02.229Z,5.60
2023-03-05T13:54:29.682Z,5.63
2023-03-05T13:55:33.904Z,5.62
2023-03-05T13:56:40.335Z,5.64
2023-03-05T13:57:53.168Z,5.69
2023-03-05T13:58:57.919Z,5.60
2023-03-05T14:00:01.371Z,5.65
2023-03-05T14:01:15.952Z,5.76
2023-03-05T14:02:23.464Z,5.75
2023-03-05T14:03:29.542Z,5.72
2023-03-05T14:04:38.054Z,5.75
2023-03-05T14:05:45.809Z,5.73
2023-03-05T14:07:00.648Z,5.75
2023-03-05T14:08:04.854Z,5.78
2023-03-05T14:09:22.478Z,5.80
2023-03-05T14:10:37.291Z,5.82
2023-03-05T14:11:40.933Z,5.86
2023-03-05T14:14:37.862Z,5.85
2023-03-05T14:15:44.225Z,5.78
2023-03-05T14:16:49.199Z,5.81
2023-03-05T14:18:07.952Z,5.80
2023-03-05T14:19:37.630Z,5.89
2023-03-05T14:21:20.740Z,5.87
2023-03-05T14:22:36.551Z,5.93
2023-03-05T14:23:43.721Z,6.03
2023-03-05T14:24:53.504Z,5.98
2023-03-05T14:26:29.608Z,6.00
2023-03-05T14:27:37.710Z,6.04
2023-03-05T14:28:42.542Z,6.00
2023-03-05T14:29:48.316Z,5.93
2023-03-05T14:30:55.561Z,5.96
2023-03-05T14:32:05.087Z,5.93
2023-03-05T14:35:23.101Z,5.82
2023-03-05T14:36:30.220Z,5.80
2023-03-05T14:37:42.812Z,5.83
2023-03-05T14:39:53.777Z,5.84
2023-03-05T14:40:57.408Z,5.82
2023-03-05T14:42:39.272Z,5.86
2023-03-05T14:45:40.291Z,5.83
2023-03-05T14:46:48.953Z,5.73
2023-03-05T14:47:56.010Z,5.64
2023-03-05T14:49:04.873Z,5.68
2023-03-05T14:50:21.111Z,5.64
2023-03-05T14:51:25.822Z,5.61
2023-03-05T14:52:30.538Z,5.53
2023-03-05T14:53:40.597Z,5.51
2023-03-05T14:54:45.894Z,5.41
2023-03-05T14:55:53.896Z,5.37
2023-03-05T14:56:57.640Z,5.47
2023-03-05T14:58:23.147Z,5.35
2023-03-05T14:59:27.580Z,5.40
2023-03-05T15:00:31.944Z,5.31
2023-03-05T15:01:36.286Z,5.44
2023-03-05T15:02:40.870Z,5.41
2023-03-05T15:03:44.353Z,5.41
2023-03-05T15:04:48.882Z,5.42
2023-03-05T15:05:56.290Z,5.40
2023-03-05T15:07:00.054Z,5.28
2023-03-05T15:08:24.417Z,5.35
2023-03-05T15:09:29.952Z,5.31
2023-03-05T15:10:33.704Z,5.11
2023-03-05T15:11:37.418Z,5.27
2023-03-05T15:12:42.943Z,5.27
2023-03-05T15:13:47.942Z,5.30
2023-03-05T15:14:53.976Z,5.33
2023-03-05T15:15:59.066Z,5.35
2023-03-05T15:17:03.016Z,5.26
2023-03-05T15:18:13.718Z,5.26
2023-03-05T15:19:19.814Z,5.26
2023-03-05T15:20:29.457Z,5.33
2023-03-05T15:21:33.257Z,5.22
2023-03-05T15:22:37.605Z,5.13
2023-03-05T15:23:42.098Z,5.18
2023-03-05T15:24:46.764Z,5.16
2023-03-05T15:26:06.100Z,5.16
2023-03-05T15:27:11.665Z,5.16
2023-03-05T15:28:16.343Z,5.15
2023-03-05T15:29:21.407Z,5.19
2023-03-05T15:30:35.109Z,5.10
2023-03-05T15:31:40.891Z,5.10
2023-03-05T15:32:44.639Z,5.06
2023-03-05T15:33:48.823Z,5.01
2023-03-05T15:35:00.382Z,5.00
2023-03-05T15:36:12.569Z,5.03
2023-03-05T15:37:18.950Z,5.00
2023-03-05T15:40:29.108Z,5.00
2023-03-05T15:41:36.204Z,5.04
2023-03-05T15:42:40.792Z,5.01
2023-03-05T15:43:44.927Z,4.99
2023-03-05T15:44:48.651Z,4.98
2023-03-05T15:45:52.426Z,4.94
2023-03-05T15:46:59.351Z,4.93
2023-03-05T15:48:03.790Z,4.93
2023-03-05T15:49:10.132Z,4.93
2023-03-05T15:50:14.741Z,4.93
2023-03-05T15:51:20.945Z,4.93
2023-03-05T15:52:25.538Z,4.90
2023-03-05T15:53:31.500Z,4.84
2023-03-05T15:54:37.015Z,4.89
2023-03-05T15:55:41.667Z,4.89
2023-03-05T15:56:45.974Z,4.88
2023-03-05T15:57:52.437Z,4.86
2023-03-05T16:01:16.294Z,4.85
2023-03-05T16:02:28.574Z,4.85
2023-03-05T16:03:32.794Z,4.80
2023-03-05T16:04:36.755Z,4.79
2023-03-05T16:05:41.219Z,4.77
2023-03-05T16:06:48.200Z,4.78
2023-03-05T16:07:56.889Z,4.70
2023-03-05T16:09:06.291Z,4.74
2023-03-05T16:10:17.812Z,4.73
2023-03-05T16:11:22.065Z,4.72
2023-03-05T16:12:32.256Z,4.68
2023-03-05T16:13:37.604Z,4.72
2023-03-05T16:14:43.477Z,4.71
2023-03-05T16:17:55.432Z,4.69
2023-03-05T16:19:00.141Z,4.70
2023-03-05T16:20:06.465Z,4.72
2023-03-05T16:21:13.476Z,4.71
2023-03-05T16:22:17.706Z,4.71
2023-03-05T16:23:23.042Z,4.71
2023-03-05T16:24:27.939Z,4.70
2023-03-05T16:25:32.371Z,4.67
2023-03-05T16:26:39.414Z,4.71
2023-03-05T16:27:43.960Z,4.69
2023-03-05T16:28:48.218Z,4.70
2023-03-05T16:29:52.733Z,4.70
2023-03-05T16:30:58.834Z,4.69
2023-03-05T16:32:05.180Z,4.62
2023-03-05T16:33:10.993Z,4.73
2023-03-05T16:34:21.487Z,4.73
2023-03-05T16:35:26.435Z,4.69
2023-03-05T16:36:35.622Z,4.70
2023-03-05T16:37:41.095Z,4.73
2023-03-05T16:38:44.699Z,4.73
2023-03-05T16:39:48.964Z,4.70
2023-03-05T16:41:07.397Z,4.69
2023-03-05T16:42:14.321Z,4.68
2023-03-05T16:43:19.166Z,4.68
2023-03-05T16:44:25.413Z,4.65
2023-03-05T16:45:29.314Z,4.66
2023-03-05T16:46:35.175Z,4.66
2023-03-05T16:47:40.057Z,4.69
2023-03-05T16:48:45.333Z,4.69
2023-03-05T16:49:49.195Z,4.69
2023-03-05T16:50:53.293Z,4.61
2023-03-05T16:51:59.400Z,4.66
2023-03-05T16:53:05.053Z,4.61
2023-03-05T16:54:10.205Z,4.64
2023-03-05T16:55:14.674Z,4.63
2023-03-05T16:56:22.310Z,4.54
2023-03-05T16:57:31.708Z,4.66
2023-03-05T16:58:41.450Z,4.54
2023-03-05T16:59:45.414Z,4.71
2023-03-05T17:00:51.036Z,4.72
2023-03-05T17:01:54.959Z,4.73
2023-03-05T17:02:59.541Z,4.68
2023-03-05T17:04:04.411Z,4.73
2023-03-05T17:05:09.851Z,4.74
2023-03-05T17:06:25.772Z,4.75
2023-03-05T17:07:29.795Z,4.76
2023-03-05T17:08:35.352Z,4.76
2023-03-05T17:09:39.716Z,4.78
2023-03-05T17:10:44.013Z,4.78
2023-03-05T17:11:49.923Z,4.76
2023-03-05T17:12:54.133Z,4.78
2023-03-05T17:13:57.820Z,4.73
2023-03-05T17:15:01.819Z,4.73
2023-03-05T17:16:07.422Z,4.78
2023-03-05T17:17:12.632Z,4.76
2023-03-05T17:18:16.917Z,4.75
2023-03-05T17:19:23.175Z,4.76
2023-03-05T17:20:27.672Z,4.75
2023-03-05T17:21:32.034Z,4.75
2023-03-05T17:22:36.716Z,4.57
2023-03-05T17:23:42.252Z,4.75
2023-03-05T17:24:48.069Z,4.64
2023-03-05T17:25:52.827Z,4.73
2023-03-05T17:26:57.844Z,4.73
2023-03-05T17:28:03.297Z,4.72
2023-03-05T17:29:07.685Z,4.70
2023-03-05T17:30:13.217Z,4.70
2023-03-05T17:31:19.344Z,4.69
2023-03-05T17:32:23.890Z,4.67
2023-03-05T17:33:34.302Z,4.68
2023-03-05T17:34:39.101Z,4.65
2023-03-05T17:35:49.527Z,4.66
2023-03-05T17:36:53.744Z,4.65
2023-03-05T17:37:58.454Z,4.65
2023-03-05T17:39:04.584Z,4.66
2023-03-05T17:40:12.388Z,4.59
2023-03-05T17:41:18.726Z,4.65
2023-03-05T17:42:24.585Z,4.65
2023-03-05T17:43:28.723Z,4.65
2023-03-05T17:44:34.589Z,4.66
2023-03-05T17:45:39.024Z,4.66
2023-03-05T17:46:43.236Z,4.58
2023-03-05T17:47:47.357Z,4.54
2023-03-05T17:48:51.676Z,4.64
2023-03-05T17:50:01.081Z,4.64
2023-03-05T17:51:08.751Z,4.65
2023-03-05T17:52:12.595Z,4.26
2023-03-05T17:53:16.582Z,4.53
2023-03-05T17:54:22.272Z,4.55
2023-03-05T17:55:29.355Z,4.54
2023-03-05T17:56:33.786Z,4.55
2023-03-05T17:57:42.134Z,4.51
2023-03-05T17:58:51.317Z,4.47
2023-03-05T17:59:59.206Z,4.45
2023-03-05T18:01:07.512Z,4.49
2023-03-05T18:02:17.142Z,4.47
2023-03-05T18:03:21.330Z,4.44
2023-03-05T18:04:25.052Z,4.45
2023-03-05T18:05:30.538Z,4.45
2023-03-05T18:06:37.471Z,4.44
2023-03-05T18:07:45.284Z,4.39
2023-03-05T18:08:51.105Z,4.35
2023-03-05T18:09:56.679Z,4.35
2023-03-05T18:11:00.689Z,4.32
2023-03-05T18:12:05.378Z,4.30
2023-03-05T18:13:10.471Z,4.28
2023-03-05T18:14:16.941Z,4.23
2023-03-05T18:17:28.320Z,4.20
2023-03-05T18:18:45.575Z,4.19
